sensor_id;sensor_type;location;lat;lon;timestamp;P1;durP1;ratioP1;P2;durP2;ratioP2
12703;SDS011;6416;52.182;7.650;2023-08-07T00:01:29;3.25;;;1.33;;
12703;SDS011;6416;52.182;7.650;2023-08-07T00:03:55;3.80;;;1.00;;
12703;SDS011;6416;52.182;7.650;2023-08-07T00:06:20;3.03;;;0.90;;
12703;SDS011;6416;52.182;7.650;2023-08-07T00:08:45;1.40;;;1.00;;
12703;SDS011;6416;52.182;7.650;2023-08-07T00:11:11;3.17;;;1.02;;
12703;SDS011;6416;52.182;7.650;2023-08-07T00:13:36;4.13;;;1.30;;
12703;SDS011;6416;52.182;7.650;2023-08-07T00:16:02;2.55;;;1.00;;
12703;SDS011;6416;52.182;7.650;2023-08-07T00:18:28;2.10;;;0.93;;
12703;SDS011;6416;52.182;7.650;2023-08-07T00:20:54;1.65;;;0.93;;
12703;SDS011;6416;52.182;7.650;2023-08-07T00:23:20;2.58;;;1.10;;
12703;SDS011;6416;52.182;7.650;2023-08-07T00:25:45;3.70;;;1.15;;
12703;SDS011;6416;52.182;7.650;2023-08-07T00:28:11;2.40;;;1.20;;
12703;SDS011;6416;52.182;7.650;2023-08-07T00:30:36;2.85;;;1.35;;
12703;SDS011;6416;52.182;7.650;2023-08-07T00:33:02;2.38;;;1.13;;
12703;SDS011;6416;52.182;7.650;2023-08-07T00:35:27;3.67;;;1.00;;
12703;SDS011;6416;52.182;7.650;2023-08-07T00:37:53;3.25;;;1.30;;
12703;SDS011;6416;52.182;7.650;2023-08-07T00:40:18;1.35;;;1.00;;
12703;SDS011;6416;52.182;7.650;2023-08-07T00:42:44;2.42;;;1.02;;
12703;SDS011;6416;52.182;7.650;2023-08-07T00:45:09;2.33;;;1.20;;
12703;SDS011;6416;52.182;7.650;2023-08-07T00:47:35;4.75;;;1.38;;
12703;SDS011;6416;52.182;7.650;2023-08-07T00:50:01;5.85;;;1.67;;
12703;SDS011;6416;52.182;7.650;2023-08-07T00:52:27;1.90;;;0.98;;
12703;SDS011;6416;52.182;7.650;2023-08-07T00:54:53;3.63;;;1.10;;
12703;SDS011;6416;52.182;7.650;2023-08-07T00:57:18;2.47;;;1.13;;
12703;SDS011;6416;52.182;7.650;2023-08-07T00:59:44;3.60;;;1.00;;
12703;SDS011;6416;52.182;7.650;2023-08-07T01:02:10;2.33;;;1.27;;
12703;SDS011;6416;52.182;7.650;2023-08-07T01:04:36;2.25;;;1.25;;
12703;SDS011;6416;52.182;7.650;2023-08-07T01:07:02;2.25;;;1.23;;
12703;SDS011;6416;52.182;7.650;2023-08-07T01:09:28;4.47;;;1.55;;
12703;SDS011;6416;52.182;7.650;2023-08-07T01:12:00;2.70;;;1.10;;
12703;SDS011;6416;52.182;7.650;2023-08-07T01:14:55;2.50;;;1.10;;
12703;SDS011;6416;52.182;7.650;2023-08-07T01:17:28;2.72;;;1.25;;
12703;SDS011;6416;52.182;7.650;2023-08-07T01:19:54;4.20;;;1.10;;
12703;SDS011;6416;52.182;7.650;2023-08-07T01:22:21;2.83;;;1.40;;
12703;SDS011;6416;52.182;7.650;2023-08-07T01:24:48;2.90;;;1.35;;
12703;SDS011;6416;52.182;7.650;2023-08-07T01:32:13;1.73;;;1.10;;
12703;SDS011;6416;52.182;7.650;2023-08-07T01:34:41;2.33;;;1.30;;
12703;SDS011;6416;52.182;7.650;2023-08-07T01:37:08;1.88;;;1.40;;
12703;SDS011;6416;52.182;7.650;2023-08-07T01:39:36;1.92;;;1.35;;
12703;SDS011;6416;52.182;7.650;2023-08-07T01:42:03;2.30;;;1.67;;
12703;SDS011;6416;52.182;7.650;2023-08-07T01:44:29;2.35;;;1.40;;
12703;SDS011;6416;52.182;7.650;2023-08-07T01:46:54;3.50;;;1.88;;
12703;SDS011;6416;52.182;7.650;2023-08-07T01:49:20;2.63;;;1.70;;
12703;SDS011;6416;52.182;7.650;2023-08-07T01:51:45;1.65;;;1.52;;
12703;SDS011;6416;52.182;7.650;2023-08-07T01:54:11;2.35;;;1.70;;
12703;SDS011;6416;52.182;7.650;2023-08-07T01:56:36;1.90;;;1.58;;
12703;SDS011;6416;52.182;7.650;2023-08-07T01:59:02;5.10;;;1.80;;
12703;SDS011;6416;52.182;7.650;2023-08-07T02:01:27;3.13;;;2.08;;
12703;SDS011;6416;52.182;7.650;2023-08-07T02:03:52;5.33;;;2.53;;
12703;SDS011;6416;52.182;7.650;2023-08-07T02:06:18;4.55;;;1.80;;
12703;SDS011;6416;52.182;7.650;2023-08-07T02:08:43;2.28;;;1.98;;
12703;SDS011;6416;52.182;7.650;2023-08-07T02:11:09;2.40;;;1.92;;
12703;SDS011;6416;52.182;7.650;2023-08-07T02:13:34;2.50;;;1.98;;
12703;SDS011;6416;52.182;7.650;2023-08-07T02:16:00;2.92;;;2.05;;
12703;SDS011;6416;52.182;7.650;2023-08-07T02:18:25;2.67;;;2.35;;
12703;SDS011;6416;52.182;7.650;2023-08-07T02:20:51;2.25;;;2.05;;
12703;SDS011;6416;52.182;7.650;2023-08-07T02:23:16;2.25;;;1.98;;
12703;SDS011;6416;52.182;7.650;2023-08-07T02:25:42;2.28;;;1.98;;
12703;SDS011;6416;52.182;7.650;2023-08-07T02:28:07;4.53;;;2.40;;
12703;SDS011;6416;52.182;7.650;2023-08-07T02:30:33;4.78;;;2.38;;
12703;SDS011;6416;52.182;7.650;2023-08-07T02:32:58;2.50;;;2.08;;
12703;SDS011;6416;52.182;7.650;2023-08-07T02:35:23;3.10;;;2.50;;
12703;SDS011;6416;52.182;7.650;2023-08-07T02:37:49;3.00;;;2.42;;
12703;SDS011;6416;52.182;7.650;2023-08-07T02:40:14;3.78;;;2.35;;
12703;SDS011;6416;52.182;7.650;2023-08-07T02:42:40;2.30;;;2.10;;
12703;SDS011;6416;52.182;7.650;2023-08-07T02:45:06;3.13;;;2.22;;
12703;SDS011;6416;52.182;7.650;2023-08-07T02:47:32;2.42;;;2.13;;
12703;SDS011;6416;52.182;7.650;2023-08-07T02:49:57;2.57;;;2.37;;
12703;SDS011;6416;52.182;7.650;2023-08-07T02:52:23;2.83;;;2.50;;
12703;SDS011;6416;52.182;7.650;2023-08-07T02:54:48;2.05;;;1.95;;
12703;SDS011;6416;52.182;7.650;2023-08-07T02:57:14;2.53;;;2.33;;
12703;SDS011;6416;52.182;7.650;2023-08-07T02:59:39;2.45;;;2.25;;
12703;SDS011;6416;52.182;7.650;2023-08-07T03:02:05;2.53;;;2.33;;
12703;SDS011;6416;52.182;7.650;2023-08-07T03:04:30;2.33;;;2.10;;
12703;SDS011;6416;52.182;7.650;2023-08-07T03:06:56;2.45;;;2.25;;
12703;SDS011;6416;52.182;7.650;2023-08-07T03:09:21;2.40;;;2.20;;
12703;SDS011;6416;52.182;7.650;2023-08-07T03:11:47;5.32;;;2.22;;
12703;SDS011;6416;52.182;7.650;2023-08-07T03:14:12;2.65;;;2.40;;
12703;SDS011;6416;52.182;7.650;2023-08-07T03:16:38;3.67;;;2.17;;
12703;SDS011;6416;52.182;7.650;2023-08-07T03:19:03;2.28;;;2.08;;
12703;SDS011;6416;52.182;7.650;2023-08-07T03:21:28;2.78;;;2.08;;
12703;SDS011;6416;52.182;7.650;2023-08-07T03:23:54;2.75;;;2.08;;
12703;SDS011;6416;52.182;7.650;2023-08-07T03:26:19;3.08;;;2.25;;
12703;SDS011;6416;52.182;7.650;2023-08-07T03:28:45;3.10;;;2.25;;
12703;SDS011;6416;52.182;7.650;2023-08-07T03:31:10;1.92;;;1.83;;
12703;SDS011;6416;52.182;7.650;2023-08-07T03:33:36;3.92;;;2.10;;
12703;SDS011;6416;52.182;7.650;2023-08-07T03:36:01;2.63;;;2.22;;
12703;SDS011;6416;52.182;7.650;2023-08-07T03:38:27;2.30;;;2.10;;
12703;SDS011;6416;52.182;7.650;2023-08-07T03:40:53;4.55;;;2.03;;
12703;SDS011;6416;52.182;7.650;2023-08-07T03:43:18;3.75;;;2.30;;
12703;SDS011;6416;52.182;7.650;2023-08-07T03:45:43;4.22;;;2.22;;
12703;SDS011;6416;52.182;7.650;2023-08-07T03:48:09;3.95;;;2.28;;
12703;SDS011;6416;52.182;7.650;2023-08-07T03:50:34;2.25;;;1.75;;
12703;SDS011;6416;52.182;7.650;2023-08-07T03:53:00;2.55;;;2.00;;
12703;SDS011;6416;52.182;7.650;2023-08-07T03:55:26;2.75;;;2.20;;
12703;SDS011;6416;52.182;7.650;2023-08-07T03:57:51;4.05;;;1.95;;
12703;SDS011;6416;52.182;7.650;2023-08-07T04:00:17;2.40;;;1.65;;
12703;SDS011;6416;52.182;7.650;2023-08-07T04:02:43;3.15;;;2.00;;
12703;SDS011;6416;52.182;7.650;2023-08-07T04:05:08;4.30;;;1.98;;
12703;SDS011;6416;52.182;7.650;2023-08-07T04:07:33;2.63;;;1.60;;
12703;SDS011;6416;52.182;7.650;2023-08-07T04:09:59;3.38;;;1.90;;
12703;SDS011;6416;52.182;7.650;2023-08-07T04:12:24;2.77;;;2.13;;
12703;SDS011;6416;52.182;7.650;2023-08-07T04:14:50;4.18;;;1.90;;
12703;SDS011;6416;52.182;7.650;2023-08-07T04:17:15;2.47;;;1.70;;
12703;SDS011;6416;52.182;7.650;2023-08-07T04:19:41;3.35;;;1.50;;
12703;SDS011;6416;52.182;7.650;2023-08-07T04:22:06;3.00;;;1.60;;
12703;SDS011;6416;52.182;7.650;2023-08-07T04:24:32;3.63;;;1.35;;
12703;SDS011;6416;52.182;7.650;2023-08-07T04:26:57;2.20;;;1.40;;
12703;SDS011;6416;52.182;7.650;2023-08-07T04:29:24;2.90;;;1.58;;
12703;SDS011;6416;52.182;7.650;2023-08-07T04:31:49;1.88;;;1.58;;
12703;SDS011;6416;52.182;7.650;2023-08-07T04:34:15;2.10;;;1.40;;
12703;SDS011;6416;52.182;7.650;2023-08-07T04:36:40;4.78;;;1.60;;
12703;SDS011;6416;52.182;7.650;2023-08-07T04:39:06;2.95;;;1.38;;
12703;SDS011;6416;52.182;7.650;2023-08-07T04:41:31;2.45;;;1.58;;
12703;SDS011;6416;52.182;7.650;2023-08-07T04:43:57;4.68;;;1.25;;
12703;SDS011;6416;52.182;7.650;2023-08-07T04:46:22;3.00;;;1.70;;
12703;SDS011;6416;52.182;7.650;2023-08-07T04:48:48;2.33;;;1.23;;
12703;SDS011;6416;52.182;7.650;2023-08-07T04:51:13;2.97;;;1.35;;
12703;SDS011;6416;52.182;7.650;2023-08-07T04:53:39;2.15;;;1.20;;
12703;SDS011;6416;52.182;7.650;2023-08-07T04:56:04;2.95;;;1.23;;
12703;SDS011;6416;52.182;7.650;2023-08-07T04:58:30;1.38;;;0.90;;
12703;SDS011;6416;52.182;7.650;2023-08-07T05:00:55;2.22;;;1.02;;
12703;SDS011;6416;52.182;7.650;2023-08-07T05:03:21;1.55;;;1.00;;
12703;SDS011;6416;52.182;7.650;2023-08-07T05:05:47;1.35;;;0.90;;
12703;SDS011;6416;52.182;7.650;2023-08-07T05:08:12;3.30;;;1.10;;
12703;SDS011;6416;52.182;7.650;2023-08-07T05:10:38;1.30;;;0.85;;
12703;SDS011;6416;52.182;7.650;2023-08-07T05:13:03;2.83;;;1.55;;
12703;SDS011;6416;52.182;7.650;2023-08-07T05:15:29;1.38;;;0.98;;
12703;SDS011;6416;52.182;7.650;2023-08-07T05:17:54;1.50;;;1.02;;
12703;SDS011;6416;52.182;7.650;2023-08-07T05:20:19;2.13;;;1.00;;
12703;SDS011;6416;52.182;7.650;2023-08-07T05:22:45;1.10;;;0.90;;
12703;SDS011;6416;52.182;7.650;2023-08-07T05:25:10;1.17;;;0.80;;
12703;SDS011;6416;52.182;7.650;2023-08-07T05:27:36;2.38;;;1.00;;
12703;SDS011;6416;52.182;7.650;2023-08-07T05:30:02;2.25;;;0.90;;
12703;SDS011;6416;52.182;7.650;2023-08-07T05:32:28;1.20;;;0.90;;
12703;SDS011;6416;52.182;7.650;2023-08-07T05:34:53;1.20;;;0.90;;
12703;SDS011;6416;52.182;7.650;2023-08-07T05:37:19;1.75;;;0.70;;
12703;SDS011;6416;52.182;7.650;2023-08-07T05:39:44;2.63;;;1.10;;
12703;SDS011;6416;52.182;7.650;2023-08-07T05:42:10;1.20;;;0.90;;
12703;SDS011;6416;52.182;7.650;2023-08-07T05:44:35;2.78;;;1.10;;
12703;SDS011;6416;52.182;7.650;2023-08-07T05:47:01;1.50;;;1.20;;
12703;SDS011;6416;52.182;7.650;2023-08-07T05:49:26;1.83;;;1.10;;
12703;SDS011;6416;52.182;7.650;2023-08-07T05:51:52;1.80;;;1.30;;
12703;SDS011;6416;52.182;7.650;2023-08-07T05:54:18;2.53;;;1.15;;
12703;SDS011;6416;52.182;7.650;2023-08-07T05:56:43;1.85;;;1.05;;
12703;SDS011;6416;52.182;7.650;2023-08-07T05:59:09;3.25;;;1.52;;
12703;SDS011;6416;52.182;7.650;2023-08-07T06:01:34;2.97;;;1.42;;
12703;SDS011;6416;52.182;7.650;2023-08-07T06:04:00;3.15;;;1.75;;
12703;SDS011;6416;52.182;7.650;2023-08-07T06:06:25;1.85;;;1.33;;
12703;SDS011;6416;52.182;7.650;2023-08-07T06:08:51;3.15;;;1.52;;
12703;SDS011;6416;52.182;7.650;2023-08-07T06:11:17;1.95;;;1.30;;
12703;SDS011;6416;52.182;7.650;2023-08-07T06:13:42;3.50;;;2.08;;
12703;SDS011;6416;52.182;7.650;2023-08-07T06:16:08;3.35;;;1.85;;
12703;SDS011;6416;52.182;7.650;2023-08-07T06:18:33;2.95;;;1.75;;
12703;SDS011;6416;52.182;7.650;2023-08-07T06:20:59;2.58;;;1.85;;
12703;SDS011;6416;52.182;7.650;2023-08-07T06:23:24;3.20;;;1.85;;
12703;SDS011;6416;52.182;7.650;2023-08-07T06:25:50;3.20;;;1.73;;
12703;SDS011;6416;52.182;7.650;2023-08-07T06:28:15;3.80;;;2.20;;
12703;SDS011;6416;52.182;7.650;2023-08-07T06:30:41;3.10;;;1.92;;
12703;SDS011;6416;52.182;7.650;2023-08-07T06:33:06;6.63;;;1.73;;
12703;SDS011;6416;52.182;7.650;2023-08-07T06:35:37;3.60;;;1.90;;
12703;SDS011;6416;52.182;7.650;2023-08-07T06:38:05;5.47;;;1.80;;
12703;SDS011;6416;52.182;7.650;2023-08-07T06:40:31;2.92;;;1.77;;
12703;SDS011;6416;52.182;7.650;2023-08-07T06:42:56;2.55;;;1.40;;
12703;SDS011;6416;52.182;7.650;2023-08-07T06:45:22;4.38;;;1.85;;
12703;SDS011;6416;52.182;7.650;2023-08-07T06:47:47;2.22;;;1.60;;
12703;SDS011;6416;52.182;7.650;2023-08-07T06:50:13;2.53;;;1.50;;
12703;SDS011;6416;52.182;7.650;2023-08-07T06:52:39;3.63;;;1.77;;
12703;SDS011;6416;52.182;7.650;2023-08-07T06:55:04;2.65;;;1.80;;
12703;SDS011;6416;52.182;7.650;2023-08-07T06:57:30;1.98;;;1.42;;
12703;SDS011;6416;52.182;7.650;2023-08-07T06:59:55;3.83;;;1.98;;
12703;SDS011;6416;52.182;7.650;2023-08-07T07:02:21;5.72;;;1.70;;
12703;SDS011;6416;52.182;7.650;2023-08-07T07:04:46;3.85;;;1.67;;
12703;SDS011;6416;52.182;7.650;2023-08-07T07:07:12;3.20;;;1.60;;
12703;SDS011;6416;52.182;7.650;2023-08-07T07:09:37;2.65;;;1.70;;
12703;SDS011;6416;52.182;7.650;2023-08-07T07:12:03;3.08;;;1.40;;
12703;SDS011;6416;52.182;7.650;2023-08-07T07:14:29;3.58;;;1.58;;
12703;SDS011;6416;52.182;7.650;2023-08-07T07:16:54;3.33;;;1.85;;
12703;SDS011;6416;52.182;7.650;2023-08-07T07:19:20;4.40;;;1.60;;
12703;SDS011;6416;52.182;7.650;2023-08-07T07:21:45;3.55;;;1.65;;
12703;SDS011;6416;52.182;7.650;2023-08-07T07:24:11;2.65;;;1.50;;
12703;SDS011;6416;52.182;7.650;2023-08-07T07:26:36;3.78;;;1.60;;
12703;SDS011;6416;52.182;7.650;2023-08-07T07:29:02;3.65;;;1.92;;
12703;SDS011;6416;52.182;7.650;2023-08-07T07:31:27;3.97;;;2.20;;
12703;SDS011;6416;52.182;7.650;2023-08-07T07:33:53;3.83;;;1.55;;
12703;SDS011;6416;52.182;7.650;2023-08-07T07:36:18;5.68;;;1.88;;
12703;SDS011;6416;52.182;7.650;2023-08-07T07:38:47;2.85;;;1.52;;
12703;SDS011;6416;52.182;7.650;2023-08-07T07:41:13;2.92;;;1.42;;
12703;SDS011;6416;52.182;7.650;2023-08-07T07:43:39;4.15;;;1.95;;
12703;SDS011;6416;52.182;7.650;2023-08-07T07:46:05;3.08;;;1.70;;
12703;SDS011;6416;52.182;7.650;2023-08-07T07:48:30;2.95;;;1.40;;
12703;SDS011;6416;52.182;7.650;2023-08-07T07:50:59;3.50;;;1.50;;
12703;SDS011;6416;52.182;7.650;2023-08-07T07:53:26;3.22;;;1.52;;
12703;SDS011;6416;52.182;7.650;2023-08-07T07:55:51;1.85;;;1.15;;
12703;SDS011;6416;52.182;7.650;2023-08-07T07:58:17;2.25;;;1.30;;
12703;SDS011;6416;52.182;7.650;2023-08-07T08:00:42;3.40;;;1.70;;
12703;SDS011;6416;52.182;7.650;2023-08-07T08:03:08;2.25;;;1.20;;
12703;SDS011;6416;52.182;7.650;2023-08-07T08:05:33;2.47;;;1.55;;
12703;SDS011;6416;52.182;7.650;2023-08-07T08:07:59;2.20;;;1.25;;
12703;SDS011;6416;52.182;7.650;2023-08-07T08:10:25;2.72;;;1.40;;
12703;SDS011;6416;52.182;7.650;2023-08-07T08:12:51;3.25;;;1.58;;
12703;SDS011;6416;52.182;7.650;2023-08-07T08:15:16;2.80;;;1.58;;
12703;SDS011;6416;52.182;7.650;2023-08-07T08:17:42;3.25;;;1.90;;
12703;SDS011;6416;52.182;7.650;2023-08-07T08:20:07;2.28;;;1.27;;
12703;SDS011;6416;52.182;7.650;2023-08-07T08:22:33;4.43;;;1.60;;
12703;SDS011;6416;52.182;7.650;2023-08-07T08:24:58;3.50;;;1.65;;
12703;SDS011;6416;52.182;7.650;2023-08-07T08:27:24;3.13;;;1.48;;
12703;SDS011;6416;52.182;7.650;2023-08-07T08:29:49;5.75;;;1.63;;
12703;SDS011;6416;52.182;7.650;2023-08-07T08:32:15;3.72;;;1.92;;
12703;SDS011;6416;52.182;7.650;2023-08-07T08:34:40;2.25;;;1.60;;
12703;SDS011;6416;52.182;7.650;2023-08-07T08:37:06;2.92;;;1.52;;
12703;SDS011;6416;52.182;7.650;2023-08-07T08:39:31;4.10;;;1.60;;
12703;SDS011;6416;52.182;7.650;2023-08-07T08:41:57;3.38;;;1.55;;
12703;SDS011;6416;52.182;7.650;2023-08-07T08:44:24;3.28;;;1.90;;
12703;SDS011;6416;52.182;7.650;2023-08-07T08:46:51;2.95;;;1.60;;
12703;SDS011;6416;52.182;7.650;2023-08-07T08:49:17;3.53;;;1.80;;
12703;SDS011;6416;52.182;7.650;2023-08-07T08:51:52;4.68;;;1.80;;
12703;SDS011;6416;52.182;7.650;2023-08-07T08:54:18;1.77;;;1.33;;
12703;SDS011;6416;52.182;7.650;2023-08-07T08:56:45;3.28;;;1.30;;
12703;SDS011;6416;52.182;7.650;2023-08-07T08:59:11;2.30;;;1.45;;
12703;SDS011;6416;52.182;7.650;2023-08-07T09:01:36;5.80;;;1.70;;
12703;SDS011;6416;52.182;7.650;2023-08-07T09:04:03;3.53;;;1.70;;
12703;SDS011;6416;52.182;7.650;2023-08-07T09:06:28;2.47;;;1.50;;
12703;SDS011;6416;52.182;7.650;2023-08-07T09:08:56;2.80;;;1.63;;
12703;SDS011;6416;52.182;7.650;2023-08-07T09:11:25;5.95;;;1.80;;
12703;SDS011;6416;52.182;7.650;2023-08-07T09:13:52;5.28;;;1.50;;
12703;SDS011;6416;52.182;7.650;2023-08-07T09:16:20;2.38;;;1.50;;
12703;SDS011;6416;52.182;7.650;2023-08-07T09:18:47;2.83;;;1.50;;
12703;SDS011;6416;52.182;7.650;2023-08-07T09:21:12;5.07;;;2.28;;
12703;SDS011;6416;52.182;7.650;2023-08-07T09:23:38;5.47;;;1.50;;
12703;SDS011;6416;52.182;7.650;2023-08-07T09:26:04;3.38;;;1.67;;
12703;SDS011;6416;52.182;7.650;2023-08-07T09:28:30;2.05;;;1.35;;
12703;SDS011;6416;52.182;7.650;2023-08-07T09:30:57;3.35;;;1.63;;
12703;SDS011;6416;52.182;7.650;2023-08-07T09:33:26;3.17;;;1.40;;
12703;SDS011;6416;52.182;7.650;2023-08-07T09:35:53;4.78;;;1.50;;
12703;SDS011;6416;52.182;7.650;2023-08-07T09:38:22;3.25;;;1.40;;
12703;SDS011;6416;52.182;7.650;2023-08-07T09:40:48;3.25;;;1.60;;
12703;SDS011;6416;52.182;7.650;2023-08-07T09:43:20;3.42;;;1.33;;
12703;SDS011;6416;52.182;7.650;2023-08-07T09:45:46;2.65;;;1.50;;
12703;SDS011;6416;52.182;7.650;2023-08-07T09:48:12;2.35;;;1.35;;
12703;SDS011;6416;52.182;7.650;2023-08-07T09:50:38;5.07;;;1.60;;
12703;SDS011;6416;52.182;7.650;2023-08-07T09:53:03;1.70;;;1.33;;
12703;SDS011;6416;52.182;7.650;2023-08-07T09:55:29;2.20;;;1.45;;
12703;SDS011;6416;52.182;7.650;2023-08-07T09:57:54;2.65;;;1.67;;
12703;SDS011;6416;52.182;7.650;2023-08-07T10:00:20;4.30;;;1.95;;
12703;SDS011;6416;52.182;7.650;2023-08-07T10:02:46;3.00;;;1.58;;
12703;SDS011;6416;52.182;7.650;2023-08-07T10:05:13;3.30;;;1.60;;
12703;SDS011;6416;52.182;7.650;2023-08-07T10:07:39;1.73;;;1.10;;
12703;SDS011;6416;52.182;7.650;2023-08-07T10:10:06;2.20;;;1.20;;
12703;SDS011;6416;52.182;7.650;2023-08-07T10:12:32;2.83;;;1.30;;
12703;SDS011;6416;52.182;7.650;2023-08-07T10:15:00;3.92;;;1.58;;
12703;SDS011;6416;52.182;7.650;2023-08-07T10:17:27;3.33;;;1.48;;
12703;SDS011;6416;52.182;7.650;2023-08-07T10:19:54;3.80;;;1.27;;
12703;SDS011;6416;52.182;7.650;2023-08-07T10:22:20;3.65;;;2.08;;
12703;SDS011;6416;52.182;7.650;2023-08-07T10:24:49;2.42;;;1.55;;
12703;SDS011;6416;52.182;7.650;2023-08-07T10:27:17;2.85;;;1.40;;
12703;SDS011;6416;52.182;7.650;2023-08-07T10:29:45;2.47;;;1.52;;
12703;SDS011;6416;52.182;7.650;2023-08-07T10:32:13;3.92;;;1.80;;
12703;SDS011;6416;52.182;7.650;2023-08-07T10:34:42;2.08;;;1.45;;
12703;SDS011;6416;52.182;7.650;2023-08-07T10:40:07;4.57;;;1.80;;
12703;SDS011;6416;52.182;7.650;2023-08-07T10:45:21;2.85;;;1.80;;
12703;SDS011;6416;52.182;7.650;2023-08-07T10:50:32;3.65;;;2.08;;
12703;SDS011;6416;52.182;7.650;2023-08-07T10:53:02;2.20;;;1.38;;
12703;SDS011;6416;52.182;7.650;2023-08-07T10:55:44;2.83;;;1.60;;
12703;SDS011;6416;52.182;7.650;2023-08-07T10:58:31;3.97;;;1.70;;
12703;SDS011;6416;52.182;7.650;2023-08-07T11:03:49;2.22;;;1.50;;
12703;SDS011;6416;52.182;7.650;2023-08-07T11:06:23;4.70;;;1.92;;
12703;SDS011;6416;52.182;7.650;2023-08-07T11:08:55;4.75;;;2.00;;
12703;SDS011;6416;52.182;7.650;2023-08-07T11:11:21;3.70;;;1.40;;
12703;SDS011;6416;52.182;7.650;2023-08-07T11:13:46;3.63;;;1.73;;
12703;SDS011;6416;52.182;7.650;2023-08-07T11:16:12;4.47;;;1.60;;
12703;SDS011;6416;52.182;7.650;2023-08-07T11:18:38;3.72;;;1.80;;
12703;SDS011;6416;52.182;7.650;2023-08-07T11:21:03;2.63;;;1.30;;
12703;SDS011;6416;52.182;7.650;2023-08-07T11:23:29;1.88;;;1.40;;
12703;SDS011;6416;52.182;7.650;2023-08-07T11:25:54;3.75;;;1.60;;
12703;SDS011;6416;52.182;7.650;2023-08-07T11:28:20;2.13;;;1.48;;
12703;SDS011;6416;52.182;7.650;2023-08-07T11:30:50;2.90;;;1.40;;
12703;SDS011;6416;52.182;7.650;2023-08-07T11:33:17;3.70;;;1.73;;
12703;SDS011;6416;52.182;7.650;2023-08-07T11:35:43;3.35;;;1.55;;
12703;SDS011;6416;52.182;7.650;2023-08-07T11:38:09;3.15;;;1.30;;
12703;SDS011;6416;52.182;7.650;2023-08-07T11:40:35;2.33;;;1.42;;
12703;SDS011;6416;52.182;7.650;2023-08-07T11:43:01;3.25;;;1.40;;
12703;SDS011;6416;52.182;7.650;2023-08-07T11:45:26;3.50;;;1.30;;
12703;SDS011;6416;52.182;7.650;2023-08-07T11:47:52;3.63;;;1.70;;
12703;SDS011;6416;52.182;7.650;2023-08-07T11:50:17;3.17;;;1.52;;
12703;SDS011;6416;52.182;7.650;2023-08-07T11:52:43;1.88;;;1.10;;
12703;SDS011;6416;52.182;7.650;2023-08-07T11:55:09;3.80;;;1.42;;
12703;SDS011;6416;52.182;7.650;2023-08-07T11:57:34;2.92;;;1.58;;
12703;SDS011;6416;52.182;7.650;2023-08-07T12:00:05;4.18;;;1.70;;
12703;SDS011;6416;52.182;7.650;2023-08-07T12:02:34;2.45;;;1.50;;
12703;SDS011;6416;52.182;7.650;2023-08-07T12:05:03;3.80;;;1.75;;
12703;SDS011;6416;52.182;7.650;2023-08-07T12:07:32;2.33;;;1.50;;
12703;SDS011;6416;52.182;7.650;2023-08-07T12:09:58;1.67;;;1.20;;
12703;SDS011;6416;52.182;7.650;2023-08-07T12:12:24;3.72;;;1.27;;
12703;SDS011;6416;52.182;7.650;2023-08-07T12:14:54;2.15;;;1.35;;
12703;SDS011;6416;52.182;7.650;2023-08-07T12:17:21;6.47;;;1.60;;
12703;SDS011;6416;52.182;7.650;2023-08-07T12:19:46;1.58;;;1.10;;
12703;SDS011;6416;52.182;7.650;2023-08-07T12:22:15;2.10;;;1.40;;
12703;SDS011;6416;52.182;7.650;2023-08-07T12:24:45;4.22;;;1.25;;
12703;SDS011;6416;52.182;7.650;2023-08-07T12:27:10;2.00;;;1.20;;
12703;SDS011;6416;52.182;7.650;2023-08-07T12:29:36;4.88;;;1.50;;
12703;SDS011;6416;52.182;7.650;2023-08-07T12:32:01;2.38;;;1.23;;
12703;SDS011;6416;52.182;7.650;2023-08-07T12:34:27;3.08;;;1.48;;
12703;SDS011;6416;52.182;7.650;2023-08-07T12:36:52;3.30;;;1.60;;
12703;SDS011;6416;52.182;7.650;2023-08-07T12:39:18;3.83;;;1.70;;
12703;SDS011;6416;52.182;7.650;2023-08-07T12:41:44;4.82;;;1.48;;
12703;SDS011;6416;52.182;7.650;2023-08-07T12:44:10;2.08;;;1.55;;
12703;SDS011;6416;52.182;7.650;2023-08-07T12:46:35;2.78;;;1.42;;
12703;SDS011;6416;52.182;7.650;2023-08-07T12:49:01;2.55;;;1.35;;
12703;SDS011;6416;52.182;7.650;2023-08-07T12:51:26;2.45;;;1.25;;
12703;SDS011;6416;52.182;7.650;2023-08-07T12:53:52;2.10;;;1.58;;
12703;SDS011;6416;52.182;7.650;2023-08-07T12:56:17;2.90;;;1.52;;
12703;SDS011;6416;52.182;7.650;2023-08-07T12:58:43;2.10;;;1.33;;
12703;SDS011;6416;52.182;7.650;2023-08-07T13:01:08;1.95;;;1.35;;
12703;SDS011;6416;52.182;7.650;2023-08-07T13:03:34;1.63;;;1.20;;
12703;SDS011;6416;52.182;7.650;2023-08-07T13:06:00;2.22;;;1.40;;
12703;SDS011;6416;52.182;7.650;2023-08-07T13:08:25;2.35;;;1.60;;
12703;SDS011;6416;52.182;7.650;2023-08-07T13:10:51;2.38;;;1.50;;
12703;SDS011;6416;52.182;7.650;2023-08-07T13:13:16;2.58;;;1.42;;
12703;SDS011;6416;52.182;7.650;2023-08-07T13:15:42;3.42;;;1.50;;
12703;SDS011;6416;52.182;7.650;2023-08-07T13:18:07;1.75;;;1.30;;
12703;SDS011;6416;52.182;7.650;2023-08-07T13:20:33;2.17;;;1.50;;
12703;SDS011;6416;52.182;7.650;2023-08-07T13:22:58;2.22;;;1.55;;
12703;SDS011;6416;52.182;7.650;2023-08-07T13:25:24;2.08;;;1.40;;
12703;SDS011;6416;52.182;7.650;2023-08-07T13:27:49;2.92;;;1.50;;
12703;SDS011;6416;52.182;7.650;2023-08-07T13:30:15;7.18;;;1.70;;
12703;SDS011;6416;52.182;7.650;2023-08-07T13:32:40;1.92;;;1.23;;
12703;SDS011;6416;52.182;7.650;2023-08-07T13:35:06;1.63;;;1.52;;
12703;SDS011;6416;52.182;7.650;2023-08-07T13:37:31;1.67;;;1.10;;
12703;SDS011;6416;52.182;7.650;2023-08-07T13:39:57;3.58;;;1.50;;
12703;SDS011;6416;52.182;7.650;2023-08-07T13:42:25;2.88;;;1.27;;
12703;SDS011;6416;52.182;7.650;2023-08-07T13:44:51;2.03;;;1.25;;
12703;SDS011;6416;52.182;7.650;2023-08-07T13:47:17;3.47;;;1.38;;
12703;SDS011;6416;52.182;7.650;2023-08-07T13:49:42;1.77;;;1.13;;
12703;SDS011;6416;52.182;7.650;2023-08-07T13:52:08;3.70;;;1.30;;
12703;SDS011;6416;52.182;7.650;2023-08-07T13:54:33;2.65;;;1.33;;
12703;SDS011;6416;52.182;7.650;2023-08-07T13:56:58;3.55;;;1.73;;
12703;SDS011;6416;52.182;7.650;2023-08-07T13:59:24;2.08;;;1.33;;
12703;SDS011;6416;52.182;7.650;2023-08-07T14:01:49;1.80;;;1.20;;
12703;SDS011;6416;52.182;7.650;2023-08-07T14:04:15;1.35;;;1.17;;
12703;SDS011;6416;52.182;7.650;2023-08-07T14:06:40;2.70;;;1.48;;
12703;SDS011;6416;52.182;7.650;2023-08-07T14:09:06;2.45;;;1.58;;
12703;SDS011;6416;52.182;7.650;2023-08-07T14:11:31;2.33;;;1.35;;
12703;SDS011;6416;52.182;7.650;2023-08-07T14:13:57;1.50;;;1.35;;
12703;SDS011;6416;52.182;7.650;2023-08-07T14:16:23;1.95;;;1.60;;
12703;SDS011;6416;52.182;7.650;2023-08-07T14:18:48;1.77;;;1.23;;
12703;SDS011;6416;52.182;7.650;2023-08-07T14:21:14;2.30;;;1.40;;
12703;SDS011;6416;52.182;7.650;2023-08-07T14:23:39;2.47;;;1.33;;
12703;SDS011;6416;52.182;7.650;2023-08-07T14:26:05;2.85;;;1.40;;
12703;SDS011;6416;52.182;7.650;2023-08-07T14:28:30;1.67;;;1.33;;
12703;SDS011;6416;52.182;7.650;2023-08-07T14:30:59;2.33;;;1.20;;
12703;SDS011;6416;52.182;7.650;2023-08-07T14:33:25;3.28;;;1.20;;
12703;SDS011;6416;52.182;7.650;2023-08-07T14:35:52;3.17;;;1.67;;
12703;SDS011;6416;52.182;7.650;2023-08-07T14:38:17;1.67;;;1.33;;
12703;SDS011;6416;52.182;7.650;2023-08-07T14:40:43;2.70;;;1.50;;
12703;SDS011;6416;52.182;7.650;2023-08-07T14:43:08;1.58;;;1.00;;
12703;SDS011;6416;52.182;7.650;2023-08-07T14:45:34;2.47;;;1.35;;
12703;SDS011;6416;52.182;7.650;2023-08-07T14:47:59;2.53;;;1.45;;
12703;SDS011;6416;52.182;7.650;2023-08-07T14:50:25;2.42;;;1.27;;
12703;SDS011;6416;52.182;7.650;2023-08-07T14:52:50;1.50;;;1.20;;
12703;SDS011;6416;52.182;7.650;2023-08-07T14:55:16;1.30;;;1.20;;
12703;SDS011;6416;52.182;7.650;2023-08-07T14:57:41;2.00;;;1.20;;
12703;SDS011;6416;52.182;7.650;2023-08-07T15:00:07;2.60;;;1.50;;
12703;SDS011;6416;52.182;7.650;2023-08-07T15:02:33;1.90;;;1.20;;
12703;SDS011;6416;52.182;7.650;2023-08-07T15:04:58;1.83;;;1.30;;
12703;SDS011;6416;52.182;7.650;2023-08-07T15:07:24;2.78;;;1.55;;
12703;SDS011;6416;52.182;7.650;2023-08-07T15:09:49;1.92;;;1.45;;